KAIT

Aitkin Municipal-Steve Kurtz Field Airport

Aitkin, Minnesota, USA
METAR KAIT 170215Z AUTO 15003KT 10SM OVC014 M07/M09 A3005 RMK AO2
Observed Flight Rules
Dec-17 @ 02:15 UTC (14 minutes ago) Marginal Visual Flight Rules
Wind Visibility Clouds
150° at 3 knots 10 miles
  • Overcast at 1,400' AGL
Temperatures Readings
Current -7°C / 19°F
Dewpoint -9°C / 16°F
Humidity 86%
Altimeter 30.05" Hg
Pressure 1018 hPa
Elevation 367
METAR KAIT 170215Z AUTO 15003KT 10SM OVC014 M07/M09 A3005 RMK AO2
Observed Flight Rules
Dec-17 @ 02:15 UTC
(14 minutes ago)
MVFR
Wind Visibility
150° at 3 knots 10 miles
Clouds
  • Overcast at 1,400' AGL
Temperature Dewpoint
-7°C / 19°F -9°C / 16°F
Humidity Altimeter Pressure
86% 30.05" Hg 1018 hPa